Time;durP1;ratioP1;P1;durP2;ratioP2;P2;SDS_P1;SDS_P2;PMS_P1;PMS_P2;Temp;Humidity;BMP_temperature;BMP_pressure;BME280_temperature;BME280_humidity;BME280_pressure;Samples;Min_cycle;Max_cycle;Signal;HPM_P1;HPM_P2
2021/07/15 05:39:51;;;;;;;8.95;7.93;;;;;;;28.75;56.83;94659.63;4969847;28;20154;-74
2021/07/15 05:42:17;;;;;;;8.98;7.93;;;;;;;28.57;57.43;94657.78;4978080;28;20129;-75
2021/07/15 05:44:42;;;;;;;9.13;7.32;;;;;;;27.06;62.07;94654.28;4968364;28;20523;-75
2021/07/15 05:47:08;;;;;;;12.88;8.93;;;;;;;27.36;60.73;94653.94;4968168;28;20966;-77
2021/07/15 05:49:37;;;;;;;10.57;8.55;;;;;;;27.57;61.09;94663.34;4953647;28;20039;-74
2021/07/15 05:52:06;;;;;;;8.32;7.63;;;;;;;27.96;59.18;94659.69;4963897;28;20026;-75
2021/07/15 05:54:31;;;;;;;;;;;;;;;27.20;61.57;94663.16;4969557;28;20117;-73
2021/07/15 05:56:57;;;;;;;10.80;7.90;;;;;;;26.86;61.63;94662.41;4984327;28;20020;-74
2021/07/15 05:59:22;;;;;;;10.93;7.90;;;;;;;30.96;51.94;94660.03;4968541;28;20072;-75
2021/07/15 06:01:48;;;;;;;8.73;7.45;;;;;;;28.75;57.49;94656.97;4948133;28;20042;-75
2021/07/15 06:04:13;;;;;;;8.88;7.43;;;;;;;27.22;60.19;94651.19;4966136;28;20030;-72
2021/07/15 06:06:38;;;;;;;9.15;7.15;;;;;;;28.12;58.20;94663.75;4951097;28;20419;-73
2021/07/15 06:09:04;;;;;;;7.40;6.45;;;;;;;28.22;58.11;94653.72;4952024;28;20443;-73
2021/07/15 06:11:29;;;;;;;8.88;7.28;;;;;;;28.84;57.09;94649.09;4969613;28;20061;-73
2021/07/15 06:13:55;;;;;;;8.23;7.40;;;;;;;31.49;48.99;94655.47;4966694;28;20035;-73
2021/07/15 06:16:20;;;;;;;11.98;7.72;;;;;;;27.63;59.21;94651.56;4989003;28;20416;-73
2021/07/15 06:18:46;;;;;;;7.82;7.10;;;;;;;30.92;51.26;94653.72;4972554;28;20112;-74
2021/07/15 06:21:12;;;;;;;9.90;7.03;;;;;;;29.90;54.16;94641.03;4999773;28;20018;-73
2021/07/15 06:23:37;;;;;;;13.52;8.15;;;;;;;29.99;53.20;94647.28;4971532;28;20038;-73
2021/07/15 06:26:04;;;;;;;8.55;7.80;;;;;;;29.91;53.25;94647.94;4969650;28;20476;-77
2021/07/15 06:28:30;;;;;;;10.93;7.63;;;;;;;29.31;55.30;94642.72;4968744;28;20022;-73
2021/07/15 06:30:55;;;;;;;17.92;8.45;;;;;;;30.81;52.50;94637.91;4969130;28;20034;-74
2021/07/15 06:33:20;;;;;;;11.18;6.97;;;;;;;30.81;52.10;94637.91;4982964;28;20351;-73
2021/07/15 06:35:50;;;;;;;8.13;7.03;;;;;;;31.03;51.45;94634.44;4984282;28;20018;-74
2021/07/15 06:38:15;;;;;;;7.78;7.10;;;;;;;31.69;50.96;94613.97;4958783;28;20039;-73
2021/07/15 06:40:43;;;;;;;10.27;6.60;;;;;;;34.42;45.42;94632.53;4959445;28;20046;-73
2021/07/15 06:43:08;;;;;;;11.82;7.47;;;;;;;29.95;53.64;94630.25;4986275;28;20403;-75
2021/07/15 06:45:34;;;;;;;12.73;7.00;;;;;;;30.50;52.26;94631.72;4987627;28;20121;-73
2021/07/15 06:47:59;;;;;;;9.18;6.00;;;;;;;31.59;51.26;94631.13;4975902;28;20030;-74
2021/07/15 06:50:25;;;;;;;10.30;7.43;;;;;;;31.83;50.74;94615.41;4955797;28;20479;-73
2021/07/15 06:52:50;;;;;;;9.55;7.35;;;;;;;31.21;52.81;94624.63;4970279;28;20034;-74
2021/07/15 06:55:15;;;;;;;7.80;7.03;;;;;;;28.18;59.19;94622.63;4971471;28;20033;-77
2021/07/15 06:57:41;;;;;;;9.95;6.90;;;;;;;28.09;59.15;94624.38;4978392;28;20471;-73
2021/07/15 07:00:09;;;;;;;8.60;6.55;;;;;;;30.02;53.50;94617.28;4957830;28;20036;-74
2021/07/15 07:02:38;;;;;;;12.20;6.90;;;;;;;30.63;54.15;94622.03;4970803;28;20045;-73
2021/07/15 07:05:04;;;;;;;8.23;7.20;;;;;;;30.60;53.89;94625.34;4966939;28;20031;-74
2021/07/15 07:07:29;;;;;;;7.07;6.47;;;;;;;29.82;56.89;94610.44;4995398;28;20042;-74
2021/07/15 07:09:55;;;;;;;8.90;7.88;;;;;;;29.07;56.83;94616.16;4955601;28;20021;-75
2021/07/15 07:12:20;;;;;;;10.65;8.10;;;;;;;30.08;53.50;94616.88;4975285;28;20026;-74
2021/07/15 07:14:46;;;;;;;8.25;7.43;;;;;;;30.36;54.85;94614.09;4961650;28;20038;-74
2021/07/15 07:17:11;;;;;;;12.65;7.50;;;;;;;30.09;53.71;94607.72;4952512;28;20026;-73
2021/07/15 07:19:37;;;;;;;20.33;7.70;;;;;;;28.90;57.57;94599.13;5003797;28;20600;-73
2021/07/15 07:22:02;;;;;;;9.18;7.70;;;;;;;28.85;57.80;94596.53;4974580;28;20428;-74
2021/07/15 07:24:28;;;;;;;8.85;7.60;;;;;;;32.80;47.23;94595.28;4989053;28;20417;-74
2021/07/15 07:26:53;;;;;;;8.52;7.32;;;;;;;33.18;49.11;94599.94;4934419;28;20038;-73
2021/07/15 07:29:19;;;;;;;10.07;7.80;;;;;;;30.71;52.97;94600.69;4952186;28;20022;-74
2021/07/15 07:31:44;;;;;;;9.38;7.72;;;;;;;30.40;54.77;94594.50;4965954;28;20026;-74
2021/07/15 07:34:10;;;;;;;8.07;7.32;;;;;;;31.39;53.03;94591.44;4968737;28;20030;-74
2021/07/15 07:36:35;;;;;;;9.15;7.53;;;;;;;30.96;53.66;94591.25;4966973;28;20059;-73
2021/07/15 07:39:01;;;;;;;8.35;6.80;;;;;;;31.09;54.18;94594.94;4955387;28;20034;-75
2021/07/15 07:41:26;;;;;;;11.68;7.75;;;;;;;30.52;53.37;94592.06;4970790;28;20049;-73
2021/07/15 07:43:53;;;;;;;7.78;7.03;;;;;;;30.48;53.82;94591.09;4957372;28;20096;-72
2021/07/15 07:46:18;;;;;;;12.02;7.68;;;;;;;28.22;59.39;94584.44;4980099;28;20022;-73
2021/07/15 07:48:44;;;;;;;8.23;7.53;;;;;;;29.32;54.64;94585.53;4974924;28;20089;-73
2021/07/15 07:51:09;;;;;;;9.38;8.57;;;;;;;29.13;55.41;94579.47;4997160;28;20029;-74
2021/07/15 07:53:35;;;;;;;7.90;7.13;;;;;;;30.76;53.04;94578.38;4996503;28;20038;-75
2021/07/15 07:56:00;;;;;;;14.43;8.57;;;;;;;28.35;57.21;94582.16;4969206;28;20034;-74
2021/07/15 07:58:25;;;;;;;9.20;8.35;;;;;;;29.79;54.32;94579.00;4978775;28;20033;-75
2021/07/15 08:00:51;;;;;;;8.00;7.20;;;;;;;30.29;54.62;94577.88;4988568;28;20476;-74
2021/07/15 08:05:52;;;;;;;8.65;7.85;;;;;;;30.00;54.85;94584.69;4978440;23;20543;-73
2021/07/15 08:08:18;;;;;;;8.52;7.78;;;;;;;30.90;53.61;94578.28;4969328;28;20090;-73
2021/07/15 08:10:44;;;;;;;17.08;8.52;;;;;;;29.83;54.34;94577.31;4970580;28;20042;-73
2021/07/15 08:13:09;;;;;;;8.38;7.35;;;;;;;29.84;53.68;94570.88;4951173;28;20073;-74
2021/07/15 08:15:35;;;;;;;8.77;7.97;;;;;;;29.87;54.10;94574.81;4960825;28;20493;-75
2021/07/15 08:18:01;;;;;;;9.15;7.78;;;;;;;29.50;56.13;94562.50;4967798;28;20417;-74
2021/07/15 08:20:26;;;;;;;9.85;7.57;;;;;;;29.96;56.22;94567.72;4937091;28;20085;-74
2021/07/15 08:22:52;;;;;;;15.05;8.00;;;;;;;30.59;53.39;94571.03;4942380;28;20086;-74
2021/07/15 08:25:19;;;;;;;10.88;8.15;;;;;;;28.99;56.46;94568.81;4967067;28;20045;-73
2021/07/15 08:27:45;;;;;;;10.63;8.88;;;;;;;28.79;56.83;94561.16;4947675;28;20121;-78
2021/07/15 08:30:11;;;;;;;11.98;8.57;;;;;;;28.75;55.90;94555.63;4945180;28;20118;-72
2021/07/15 08:32:37;;;;;;;8.80;8.05;;;;;;;29.10;55.56;94559.50;4974126;28;20038;-75
2021/07/15 08:35:03;;;;;;;8.70;8.10;;;;;;;29.74;54.38;94561.19;4963939;28;20045;-77
2021/07/15 08:37:29;;;;;;;10.27;8.82;;;;;;;28.91;56.95;94556.13;4950255;28;20062;-75
2021/07/15 08:39:54;;;;;;;10.80;7.68;;;;;;;30.28;53.24;94552.22;4971150;28;20038;-74
2021/07/15 08:42:20;;;;;;;8.75;7.95;;;;;;;29.60;55.24;94544.41;4960547;28;20062;-73
2021/07/15 08:44:46;;;;;;;9.43;8.65;;;;;;;30.62;53.95;94548.22;4965465;28;20054;-74
2021/07/15 08:47:13;;;;;;;9.75;8.65;;;;;;;29.50;54.85;94549.16;4951746;28;20026;-78
2021/07/15 08:49:39;;;;;;;9.43;8.52;;;;;;;29.74;55.57;94555.03;4957959;28;20422;-73
2021/07/15 08:52:05;;;;;;;8.70;7.93;;;;;;;30.27;53.47;94555.22;4951632;28;20032;-73
2021/07/15 08:57:15;;;;;;;11.40;9.00;;;;;;;29.61;54.58;94550.50;4946030;29;20136;-75
2021/07/15 08:59:40;;;;;;;8.93;8.15;;;;;;;30.41;53.04;94550.59;4916590;29;20065;-75
2021/07/15 09:02:06;;;;;;;8.32;7.65;;;;;;;30.86;54.61;94537.97;4937084;29;20485;-73
2021/07/15 09:04:31;;;;;;;11.55;9.40;;;;;;;29.35;55.43;94544.91;4951753;28;20066;-73
2021/07/15 09:06:57;;;;;;;10.27;7.85;;;;;;;30.31;53.50;94545.50;4969902;28;20034;-74
2021/07/15 09:09:22;;;;;;;11.35;8.05;;;;;;;29.78;53.77;94540.78;4920548;28;20073;-75
2021/07/15 09:11:48;;;;;;;10.13;9.27;;;;;;;29.77;53.65;94539.19;4930157;28;20019;-78
2021/07/15 09:14:17;;;;;;;8.75;7.85;;;;;;;29.96;54.97;94547.09;4925798;28;20630;-76
2021/07/15 09:17:01;;;;;;;9.23;8.52;;;;;;;30.01;54.25;94524.81;4941457;28;20031;-74
2021/07/15 09:19:26;;;;;;;9.90;9.00;;;;;;;30.19;54.28;94537.22;4926345;28;20027;-79
2021/07/15 09:21:52;;;;;;;9.00;8.27;;;;;;;30.28;54.74;94527.38;4925187;28;20020;-80
2021/07/15 09:24:56;;;;;;;9.85;8.82;;;;;;;29.32;55.00;94534.03;4914709;29;20033;-78
2021/07/15 09:27:23;;;;;;;9.75;8.18;;;;;;;30.95;51.66;94525.47;4930936;28;20053;-76
2021/07/15 09:30:05;;;;;;;9.80;7.57;;;;;;;30.63;51.81;94526.50;4929185;28;20074;-74
2021/07/15 09:32:30;;;;;;;8.15;7.38;;;;;;;31.50;51.42;94519.69;4955162;28;20031;-76
2021/07/15 09:35:06;;;;;;;14.13;8.45;;;;;;;31.22;50.99;94529.78;4916696;29;20097;-77
2021/07/15 09:37:35;;;;;;;9.30;8.45;;;;;;;30.42;54.03;94517.44;4916264;29;20059;-75
2021/07/15 09:40:00;;;;;;;9.45;7.72;;;;;;;30.70;52.04;94521.53;4917297;29;20041;-74
2021/07/15 09:42:26;;;;;;;10.45;8.75;;;;;;;29.53;54.85;94511.19;4930752;29;20039;-79
2021/07/15 09:44:52;;;;;;;9.40;8.68;;;;;;;30.92;52.67;94509.97;4930966;28;20043;-76
2021/07/15 09:47:39;;;;;;;9.23;8.20;;;;;;;31.08;52.41;94516.50;4951018;28;20089;-76
2021/07/15 09:50:16;;;;;;;12.43;8.90;;;;;;;30.42;52.56;94512.09;4951839;28;20027;-79
2021/07/15 09:52:43;;;;;;;11.18;8.32;;;;;;;31.64;50.57;94509.59;4952377;28;20511;-77
2021/07/15 09:55:25;;;;;;;12.38;7.13;;;;;;;31.70;52.61;94511.81;4915914;29;20039;-78
2021/07/15 09:58:01;;;;;;;9.52;8.20;;;;;;;30.84;52.08;94500.03;4917074;29;20131;-78
2021/07/15 10:00:43;;;;;;;8.80;8.00;;;;;;;31.25;50.45;94505.06;4916313;29;20838;-77
2021/07/15 10:03:11;;;;;;;8.02;7.22;;;;;;;31.25;51.51;94497.84;4913439;29;20028;-77
2021/07/15 10:05:37;;;;;;;8.75;7.60;;;;;;;32.02;49.89;94504.41;4897745;29;20043;-77
2021/07/15 10:08:06;;;;;;;9.57;8.63;;;;;;;32.07;50.02;94498.94;4928885;29;20429;-76
2021/07/15 10:10:32;;;;;;;9.38;7.82;;;;;;;31.64;50.17;94493.53;4932285;29;20027;-76
2021/07/15 10:13:20;;;;;;;13.00;8.05;;;;;;;31.19;49.59;94490.25;4948370;29;20027;-79
2021/07/15 10:15:46;;;;;;;11.45;8.52;;;;;;;32.26;49.83;94492.13;4932101;29;20054;-78
2021/07/15 10:18:12;;;;;;;9.65;8.68;;;;;;;30.99;50.72;94483.59;4931982;29;20098;-78
2021/07/15 10:20:37;;;;;;;9.80;9.00;;;;;;;31.52;50.85;94488.78;4930697;29;20031;-76
2021/07/15 10:23:03;;;;;;;9.70;8.00;;;;;;;31.34;51.59;94481.78;4932997;29;20496;-76
2021/07/15 10:25:29;;;;;;;8.95;7.97;;;;;;;31.60;49.91;94484.53;4930996;29;20611;-78
2021/07/15 10:27:55;;;;;;;9.60;8.77;;;;;;;31.05;50.81;94487.69;4916302;29;20039;-78
2021/07/15 10:30:20;;;;;;;10.23;8.10;;;;;;;31.10;50.40;94482.22;4915128;29;20031;-75
2021/07/15 10:32:45;;;;;;;11.55;8.68;;;;;;;32.21;49.04;94476.19;4923281;29;20095;-77
2021/07/15 10:35:17;;;;;;;8.63;7.72;;;;;;;32.00;49.03;94475.25;4912836;29;20485;-78
2021/07/15 10:37:45;;;;;;;8.82;8.02;;;;;;;32.30;49.19;94476.97;4928390;29;20042;-78
2021/07/15 10:40:12;;;;;;;10.48;7.90;;;;;;;31.79;49.19;94468.94;4918585;29;20062;-83
2021/07/15 10:42:38;;;;;;;8.32;7.53;;;;;;;32.74;48.34;94470.41;4935543;29;20035;-78
2021/07/15 10:45:05;;;;;;;8.30;7.50;;;;;;;32.37;48.20;94477.25;4955890;28;20688;-78
2021/07/15 10:47:31;;;;;;;9.52;7.97;;;;;;;32.21;47.96;94462.78;4941123;29;20834;-76
2021/07/15 10:49:58;;;;;;;8.30;7.35;;;;;;;32.52;46.90;94459.88;4954172;28;20046;-76
2021/07/15 10:52:24;;;;;;;8.13;7.32;;;;;;;32.95;47.11;94456.25;4940786;29;20114;-80
2021/07/15 10:54:50;;;;;;;8.02;7.43;;;;;;;32.49;47.77;94459.72;4939708;29;20066;-79
2021/07/15 10:57:21;;;;;;;8.55;7.70;;;;;;;31.91;47.60;94466.44;4957526;28;20035;-79
2021/07/15 10:59:47;;;;;;;8.30;7.50;;;;;;;32.50;47.58;94459.41;4934320;29;20027;-88
2021/07/15 11:02:20;;;;;;;8.95;8.13;;;;;;;32.35;46.79;94467.97;4920307;29;20067;-81
2021/07/15 11:04:46;;;;;;;9.60;8.70;;;;;;;31.92;47.70;94459.19;4955756;28;20043;-82
2021/07/15 11:07:15;;;;;;;14.85;8.80;;;;;;;31.12;48.39;94455.13;4952391;28;20020;-80
2021/07/15 11:09:40;;;;;;;11.85;8.65;;;;;;;32.00;47.84;94453.81;4958917;28;20407;-82
2021/07/15 11:12:24;;;;;;;10.77;7.55;;;;;;;32.13;46.92;94457.44;4938688;28;20029;-76
2021/07/15 11:14:56;;;;;;;8.27;7.45;;;;;;;32.59;45.76;94456.75;4971882;28;20027;-77
2021/07/15 11:17:21;;;;;;;8.10;6.97;;;;;;;32.75;45.69;94450.50;4950453;28;20412;-80
2021/07/15 11:19:59;;;;;;;8.25;7.38;;;;;;;32.90;45.62;94451.88;4947108;28;20038;-77
2021/07/15 11:22:37;;;;;;;8.43;7.65;;;;;;;32.71;46.48;94451.47;4970698;28;20396;-79
2021/07/15 11:25:17;;;;;;;9.20;7.47;;;;;;;32.48;44.62;94442.84;4971218;28;20031;-81
2021/07/15 11:27:51;;;;;;;7.43;6.75;;;;;;;32.60;45.91;94434.94;4960649;28;20504;-78
2021/07/15 11:30:36;;;;;;;9.65;7.57;;;;;;;32.31;44.36;94448.25;4970651;28;20089;-77
2021/07/15 11:36:11;;;;;;;13.43;7.93;;;;;;;32.51;45.76;94439.53;4976708;28;20066;-77
2021/07/15 11:38:39;;;;;;;8.35;7.22;;;;;;;32.96;44.20;94442.53;4968346;28;20042;-80
2021/07/15 11:41:09;;;;;;;12.18;8.05;;;;;;;33.01;42.08;94446.94;4970270;28;20027;-82
2021/07/15 11:43:47;;;;;;;8.45;7.03;;;;;;;32.52;42.66;94433.06;4952668;28;20027;-77
2021/07/15 11:46:19;;;;;;;10.60;7.63;;;;;;;32.56;43.59;94430.53;4968224;28;20106;-76
2021/07/15 11:48:57;;;;;;;12.43;7.95;;;;;;;33.39;43.70;94424.25;4966773;28;20023;-75
2021/07/15 11:51:26;;;;;;;9.70;6.68;;;;;;;32.96;42.24;94431.00;4955457;28;20400;-77
2021/07/15 11:54:30;;;;;;;7.55;6.85;;;;;;;32.99;43.96;94433.03;4971021;28;20049;-77
2021/07/15 11:56:59;;;;;;;9.52;7.57;;;;;;;32.75;42.57;94426.34;4962069;28;20046;-82
2021/07/15 11:59:44;;;;;;;7.78;7.07;;;;;;;32.97;42.39;94430.69;4969679;28;20098;-80
2021/07/15 12:02:37;;;;;;;9.82;7.53;;;;;;;33.03;39.86;94426.69;4970072;28;20031;-83
2021/07/15 12:05:22;;;;;;;7.78;6.97;;;;;;;33.03;40.72;94426.69;4966454;28;20055;-78
2021/07/15 12:08:04;;;;;;;9.45;8.18;;;;;;;33.32;42.38;94423.22;4914736;29;20035;-76
2021/07/15 12:10:35;;;;;;;8.52;7.50;;;;;;;32.89;42.95;94416.19;4944564;29;20502;-77
2021/07/15 12:13:02;;;;;;;9.35;7.38;;;;;;;33.05;42.24;94415.59;4948404;28;20031;-77
2021/07/15 12:15:28;;;;;;;9.85;8.30;;;;;;;33.61;41.86;94417.81;4930816;29;20090;-76
2021/07/15 12:18:00;;;;;;;13.13;8.05;;;;;;;32.78;42.67;94419.56;4932129;29;20051;-76
2021/07/15 12:20:49;;;;;;;8.48;7.63;;;;;;;32.68;41.78;94403.81;4933716;29;20455;-83
2021/07/15 12:23:19;;;;;;;11.95;8.25;;;;;;;33.23;41.90;94409.84;4933679;29;20023;-76
2021/07/15 12:25:45;;;;;;;11.15;8.63;;;;;;;32.31;41.54;94410.69;4916926;29;20090;-80
2021/07/15 12:28:10;;;;;;;22.83;9.55;;;;;;;32.70;41.11;94405.06;4899804;29;20036;-76
2021/07/15 12:30:41;;;;;;;9.52;8.43;;;;;;;32.56;41.62;94401.75;4897835;29;20031;-77
2021/07/15 12:33:07;;;;;;;14.13;8.63;;;;;;;33.00;42.82;94400.50;4898652;29;20110;-77
2021/07/15 12:35:33;;;;;;;9.23;8.32;;;;;;;32.88;42.31;94398.50;4931449;29;20059;-80
2021/07/15 12:37:59;;;;;;;12.15;8.38;;;;;;;32.63;41.44;94402.09;4928933;29;20523;-88
2021/07/15 12:40:29;;;;;;;10.05;8.43;;;;;;;32.48;41.63;94393.75;4916409;29;20039;-75
2021/07/15 12:43:10;;;;;;;10.02;8.10;;;;;;;32.42;41.14;94406.56;4949617;29;20027;-81
2021/07/15 12:45:35;;;;;;;8.77;7.85;;;;;;;33.49;40.44;94398.91;4933556;29;20417;-76
2021/07/15 12:48:02;;;;;;;9.60;7.22;;;;;;;32.83;40.45;94404.06;4916895;29;20043;-76
2021/07/15 12:50:28;;;;;;;8.57;7.78;;;;;;;33.27;40.51;94404.59;4911002;28;20038;-77
2021/07/15 12:53:20;;;;;;;8.52;7.82;;;;;;;33.72;41.25;94404.75;4942894;28;20034;-76
2021/07/15 12:55:46;;;;;;;9.23;8.38;;;;;;;32.97;41.54;94398.47;4930904;29;20043;-82
2021/07/15 12:58:12;;;;;;;17.85;9.00;;;;;;;33.05;40.48;94399.50;4897856;29;20024;-77
2021/07/15 13:00:38;;;;;;;9.57;8.02;;;;;;;33.07;41.36;94398.09;4943112;28;20055;-76
2021/07/15 13:03:04;;;;;;;11.45;9.18;;;;;;;32.51;40.71;94390.44;4913392;29;20036;-76
2021/07/15 13:05:29;;;;;;;14.30;8.27;;;;;;;32.95;40.03;94397.19;4948189;28;20521;-77
2021/07/15 13:07:55;;;;;;;9.20;8.20;;;;;;;32.81;40.58;94392.88;4967316;28;20456;-77
2021/07/15 13:15:55;;;;;;;10.85;7.95;;;;;;;32.88;40.70;94382.38;4959916;28;20081;-77
2021/07/15 13:18:27;;;;;;;9.52;8.52;;;;;;;33.04;40.54;94381.84;4931903;29;20047;-77
2021/07/15 13:20:52;;;;;;;11.27;8.13;;;;;;;32.99;41.56;94379.31;4948172;29;20027;-75
2021/07/15 13:23:18;;;;;;;9.55;7.60;;;;;;;32.90;41.86;94382.06;4947363;28;20027;-76
2021/07/15 13:25:45;;;;;;;8.77;8.10;;;;;;;33.09;40.57;94371.72;4966613;28;20034;-75
2021/07/15 13:28:11;;;;;;;10.77;7.68;;;;;;;33.15;40.23;94367.72;4951804;28;20031;-76
2021/07/15 13:30:37;;;;;;;9.07;7.75;;;;;;;33.01;40.72;94371.75;4958016;28;20530;-77
2021/07/15 13:33:09;;;;;;;14.82;8.57;;;;;;;33.26;41.18;94374.28;4971530;28;20508;-77
2021/07/15 13:35:36;;;;;;;10.20;9.20;;;;;;;32.81;42.84;94374.06;4960408;28;20471;-81
2021/07/15 13:38:05;;;;;;;10.73;8.32;;;;;;;32.94;43.69;94366.09;4956919;28;20030;-76
2021/07/15 13:40:33;;;;;;;9.93;8.73;;;;;;;32.66;45.21;94366.56;4969378;28;20585;-76
2021/07/15 13:43:09;;;;;;;10.45;8.93;;;;;;;33.49;44.30;94371.28;4971860;28;20054;-75
2021/07/15 13:45:38;;;;;;;10.35;9.35;;;;;;;32.35;43.01;94376.78;4964872;28;20122;-81
2021/07/15 13:48:12;;;;;;;16.85;9.50;;;;;;;32.56;44.51;94369.56;4966478;28;20026;-77
2021/07/15 13:50:37;;;;;;;13.20;9.85;;;;;;;32.08;45.09;94364.53;4953219;28;20165;-75
2021/07/15 13:53:03;;;;;;;10.88;9.20;;;;;;;32.17;45.17;94362.63;4967703;28;20150;-71
2021/07/15 13:55:28;;;;;;;12.52;9.65;;;;;;;31.98;45.41;94361.41;4949859;28;20045;-77
2021/07/15 13:57:55;;;;;;;10.30;9.40;;;;;;;32.33;44.86;94365.59;4968890;28;20428;-80
2021/07/15 14:00:30;;;;;;;10.25;9.25;;;;;;;31.62;45.02;94346.50;4966492;28;20023;-71
2021/07/15 14:03:05;;;;;;;13.13;9.80;;;;;;;31.86;45.28;94349.44;4967164;28;20105;-75
2021/07/15 14:05:33;;;;;;;10.55;8.80;;;;;;;32.23;45.27;94349.84;4949670;28;20082;-75
2021/07/15 14:08:00;;;;;;;10.50;9.55;;;;;;;32.18;45.48;94352.69;4951637;28;20113;-77
2021/07/15 14:10:26;;;;;;;11.48;8.38;;;;;;;32.35;45.01;94349.94;4966456;28;20039;-76
2021/07/15 14:12:51;;;;;;;14.05;9.07;;;;;;;31.90;46.21;94340.75;4965648;28;20864;-76
2021/07/15 14:15:22;;;;;;;12.45;10.00;;;;;;;31.88;46.30;94326.91;4966103;28;20072;-78
2021/07/15 14:18:08;;;;;;;10.13;7.88;;;;;;;32.16;45.95;94336.13;4966465;28;20037;-77
2021/07/15 14:20:47;;;;;;;11.32;9.13;;;;;;;31.76;46.07;94339.06;4970959;28;20560;-77
2021/07/15 14:23:15;;;;;;;9.57;8.65;;;;;;;32.40;46.19;94333.66;4951196;29;20405;-78
2021/07/15 14:25:42;;;;;;;10.77;9.77;;;;;;;31.86;45.54;94325.31;4952312;28;20094;-72
2021/07/15 14:28:07;;;;;;;11.95;10.15;;;;;;;31.72;46.25;94321.28;4935145;29;20127;-79
2021/07/15 14:30:34;;;;;;;12.88;8.57;;;;;;;32.25;46.14;94320.81;4956932;28;20085;-75
2021/07/15 14:32:59;;;;;;;10.55;8.98;;;;;;;31.96;45.33;94318.03;4947138;28;20428;-71
2021/07/15 14:35:26;;;;;;;11.85;9.57;;;;;;;31.71;46.10;94319.69;4952263;28;20030;-79
2021/07/15 14:37:52;;;;;;;14.82;9.35;;;;;;;31.83;46.41;94311.75;4949743;28;20031;-77
2021/07/15 14:40:17;;;;;;;11.20;8.88;;;;;;;31.78;47.11;94312.75;4976133;28;20050;-84
2021/07/15 14:42:43;;;;;;;11.35;8.80;;;;;;;31.62;45.86;94306.31;4967321;28;20027;-76
2021/07/15 14:45:09;;;;;;;8.60;7.32;;;;;;;32.09;45.89;94303.66;4937195;28;20026;-74
2021/07/15 14:47:35;;;;;;;13.00;8.20;;;;;;;31.79;46.35;94298.22;4953322;28;20046;-77
2021/07/15 14:50:00;;;;;;;15.15;9.07;;;;;;;31.53;45.62;94296.72;4968377;28;20527;-75
2021/07/15 14:52:27;;;;;;;9.88;8.93;;;;;;;31.24;46.09;94294.69;4968702;28;20034;-71
2021/07/15 14:54:53;;;;;;;10.00;8.48;;;;;;;31.23;46.34;94290.41;4953872;28;20039;-75
2021/07/15 14:57:18;;;;;;;8.35;7.80;;;;;;;31.39;45.96;94290.72;4953278;28;20030;-77
2021/07/15 14:59:44;;;;;;;8.25;7.57;;;;;;;31.39;45.40;94288.03;4969313;28;20027;-82
2021/07/15 15:02:09;;;;;;;9.85;7.95;;;;;;;31.24;45.20;94276.69;4969053;28;20058;-72
2021/07/15 15:04:35;;;;;;;9.32;8.38;;;;;;;31.29;45.35;94275.75;4968954;28;20047;-76
2021/07/15 15:07:00;;;;;;;9.30;8.30;;;;;;;31.34;45.43;94280.94;4952047;28;20031;-79
2021/07/15 15:09:25;;;;;;;9.13;8.30;;;;;;;31.21;45.87;94281.94;4949667;28;20034;-77
2021/07/15 15:11:51;;;;;;;8.15;7.40;;;;;;;31.32;46.22;94275.13;4954218;28;20082;-77
2021/07/15 15:14:16;;;;;;;9.20;7.15;;;;;;;31.33;46.28;94288.22;4952509;28;20065;-76
2021/07/15 15:16:42;;;;;;;9.55;8.57;;;;;;;30.98;45.07;94288.53;4971211;28;20026;-72
2021/07/15 15:19:07;;;;;;;9.70;8.07;;;;;;;31.03;45.82;94285.69;4938064;28;20027;-75
2021/07/15 15:21:33;;;;;;;11.27;7.88;;;;;;;31.28;46.62;94292.91;4980776;28;20534;-79
2021/07/15 15:23:59;;;;;;;9.20;7.97;;;;;;;30.94;46.32;94287.56;4979525;28;20031;-82
2021/07/15 15:26:24;;;;;;;9.27;8.38;;;;;;;30.98;45.78;94288.53;4970916;28;20034;-76
2021/07/15 15:28:49;;;;;;;12.65;7.15;;;;;;;30.97;46.19;94289.63;4988516;28;20046;-74
2021/07/15 15:31:15;;;;;;;8.23;7.30;;;;;;;31.00;45.26;94284.44;4968472;28;20039;-76
2021/07/15 15:33:40;;;;;;;8.13;7.03;;;;;;;30.81;44.91;94282.03;4953070;28;20051;-75
2021/07/15 15:36:06;;;;;;;9.65;7.43;;;;;;;30.72;45.15;94262.53;4968588;28;20031;-72
2021/07/15 15:38:31;;;;;;;8.30;7.50;;;;;;;30.71;45.60;94266.28;4953332;28;20027;-76
2021/07/15 15:40:57;;;;;;;12.43;8.05;;;;;;;30.55;46.20;94264.38;4952816;28;20027;-76
2021/07/15 15:43:23;;;;;;;9.05;8.18;;;;;;;30.53;46.07;94256.69;4956664;28;20031;-76
2021/07/15 15:45:48;;;;;;;18.80;8.88;;;;;;;30.50;45.71;94265.34;4952939;28;20031;-76
2021/07/15 15:48:14;;;;;;;8.13;7.40;;;;;;;30.46;45.92;94275.06;4959488;28;20027;-76
2021/07/15 15:50:39;;;;;;;8.77;6.85;;;;;;;30.43;45.40;94266.88;4965123;28;20408;-74
2021/07/15 15:53:05;;;;;;;14.15;8.25;;;;;;;30.29;45.58;94275.78;4952620;28;20074;-75
2021/07/15 15:55:30;;;;;;;7.18;6.53;;;;;;;30.42;46.31;94279.44;4953032;28;20471;-78
2021/07/15 15:57:57;;;;;;;9.10;6.93;;;;;;;30.28;46.10;94281.41;4972191;28;20030;-79
2021/07/15 16:00:23;;;;;;;7.18;6.57;;;;;;;30.24;45.88;94283.94;4975898;28;20066;-75
2021/07/15 16:02:49;;;;;;;7.30;6.65;;;;;;;30.24;45.70;94281.28;4973804;28;20469;-80
2021/07/15 16:05:15;;;;;;;8.63;7.38;;;;;;;30.15;45.65;94290.38;4940223;28;20054;-81
2021/07/15 16:07:44;;;;;;;17.90;7.72;;;;;;;30.09;45.02;94280.88;4972314;28;20026;-72
2021/07/15 16:10:14;;;;;;;11.93;6.55;;;;;;;30.11;46.12;94292.06;4956988;28;20031;-77
2021/07/15 16:12:40;;;;;;;7.55;6.80;;;;;;;29.93;46.00;94290.41;4954289;28;20161;-75
2021/07/15 16:15:06;;;;;;;8.98;6.68;;;;;;;29.95;45.64;94298.94;4952057;28;20476;-76
2021/07/15 16:17:33;;;;;;;9.98;6.38;;;;;;;29.95;45.98;94296.25;4972757;28;20097;-75
2021/07/15 16:20:06;;;;;;;7.70;6.68;;;;;;;29.84;45.94;94290.38;4967317;28;20034;-75
2021/07/15 16:22:31;;;;;;;9.50;6.90;;;;;;;29.79;45.69;94309.97;4934030;28;20027;-77
2021/07/15 16:24:57;;;;;;;9.25;6.60;;;;;;;29.73;46.20;94303.16;4938142;28;20170;-74
2021/07/15 16:27:22;;;;;;;7.32;6.40;;;;;;;29.66;46.01;94296.72;4968260;28;20027;-74
2021/07/15 16:29:48;;;;;;;17.67;7.78;;;;;;;29.66;46.55;94294.81;4952685;28;20536;-75
2021/07/15 16:32:13;;;;;;;6.38;5.88;;;;;;;29.54;45.88;94299.91;4965068;28;20034;-74
2021/07/15 16:34:39;;;;;;;6.80;6.20;;;;;;;29.48;45.92;94300.34;4931994;29;20035;-76
2021/07/15 16:37:05;;;;;;;12.82;6.38;;;;;;;29.45;46.30;94301.75;4955322;28;20026;-74
2021/07/15 16:39:33;;;;;;;7.28;6.28;;;;;;;29.33;45.34;94300.72;4969854;28;20077;-74
2021/07/15 16:42:06;;;;;;;7.83;5.70;;;;;;;29.36;45.47;94300.13;4941608;28;20093;-75
2021/07/15 16:44:31;;;;;;;6.22;5.70;;;;;;;29.20;46.14;94305.00;4968030;28;20492;-75
2021/07/15 16:46:57;;;;;;;7.70;5.40;;;;;;;29.20;46.27;94311.13;4970209;28;20022;-75
2021/07/15 16:49:22;;;;;;;7.07;6.32;;;;;;;29.08;46.80;94315.44;4968207;28;20165;-75
2021/07/15 16:51:51;;;;;;;6.13;5.53;;;;;;;29.04;47.11;94320.56;4972446;28;20042;-75
2021/07/15 16:54:17;;;;;;;8.55;6.03;;;;;;;28.99;47.03;94320.69;4968020;28;20047;-76
2021/07/15 16:56:42;;;;;;;6.68;5.70;;;;;;;28.99;47.21;94327.91;4952897;28;20606;-75
2021/07/15 16:59:08;;;;;;;6.55;5.47;;;;;;;28.86;48.46;94336.75;4976371;28;20042;-75
2021/07/15 17:01:33;;;;;;;8.90;5.93;;;;;;;28.61;48.79;94336.13;4977546;28;20080;-75
2021/07/15 17:03:59;;;;;;;6.95;6.25;;;;;;;28.41;49.67;94341.91;4967308;28;20043;-75
2021/07/15 17:06:24;;;;;;;6.90;6.28;;;;;;;28.32;50.31;94348.97;4966550;28;20069;-75
2021/07/15 17:08:50;;;;;;;9.30;6.32;;;;;;;28.27;49.96;94343.75;4967072;28;20026;-75
2021/07/15 17:11:16;;;;;;;8.52;6.32;;;;;;;28.06;52.48;94353.22;4967853;28;20027;-75
2021/07/15 17:13:42;;;;;;;7.50;6.45;;;;;;;27.83;52.72;94354.94;4965400;28;20045;-75
2021/07/15 17:16:07;;;;;;;9.32;5.55;;;;;;;27.65;52.35;94355.75;4965992;28;20050;-75
2021/07/15 17:18:33;;;;;;;7.18;5.82;;;;;;;27.62;51.40;94357.13;4967225;28;20106;-76
2021/07/15 17:20:58;;;;;;;6.60;6.07;;;;;;;27.54;51.68;94355.16;4966727;28;20054;-75
2021/07/15 17:23:24;;;;;;;6.32;5.93;;;;;;;27.54;51.45;94355.16;4949789;28;20027;-76
2021/07/15 17:25:49;;;;;;;6.75;6.25;;;;;;;27.43;52.17;94348.41;4967394;28;20034;-75
2021/07/15 17:28:17;;;;;;;9.23;6.07;;;;;;;27.26;53.41;94348.09;4967338;28;20037;-76